createdAt,value
2022-08-05T00:01:20.352Z,51.09
2022-08-05T00:02:29.865Z,50.69
2022-08-05T00:03:31.800Z,50.79
2022-08-05T00:04:33.754Z,51.19
2022-08-05T00:06:22.215Z,50.79
2022-08-05T00:08:01.682Z,51.6
2022-08-05T00:09:03.155Z,51.24
2022-08-05T00:10:03.585Z,50.72
2022-08-05T00:11:20.384Z,50.34
2022-08-05T00:12:57.097Z,51.02
2022-08-05T00:13:58.410Z,51.55
2022-08-05T00:15:54.583Z,51.21
2022-08-05T00:17:03.025Z,51.8
2022-08-05T00:18:03.736Z,51.93
2022-08-05T00:19:04.166Z,51.54
2022-08-05T00:20:07.337Z,52.31
2022-08-05T00:21:08.781Z,52.21
2022-08-05T00:22:11.784Z,52.09
2022-08-05T00:23:13.403Z,52.29
2022-08-05T00:24:30.844Z,51.62
2022-08-05T00:25:46.375Z,51.96
2022-08-05T00:26:53.464Z,51.6
2022-08-05T00:27:55.510Z,51.62
2022-08-05T00:28:55.959Z,51.62
2022-08-05T00:29:56.641Z,51.61
2022-08-05T00:31:04.772Z,52.38
2022-08-05T00:32:15.782Z,51.25
2022-08-05T00:35:07.075Z,51.68
2022-08-05T00:37:13.960Z,52.31
2022-08-05T00:38:14.915Z,52.12
2022-08-05T00:39:15.789Z,51.8
2022-08-05T00:40:28.954Z,51.45
2022-08-05T00:41:55.887Z,52.16
2022-08-05T00:42:57.381Z,52.23
2022-08-05T00:43:57.871Z,52.04
2022-08-05T00:45:00.156Z,51.44
2022-08-05T00:46:00.653Z,51.76
2022-08-05T00:47:06.066Z,51.39
2022-08-05T00:48:07.275Z,51.69
2022-08-05T00:49:14.634Z,52.98
2022-08-05T00:50:15.311Z,52.15
2022-08-05T00:51:52.361Z,52.66
2022-08-05T00:52:55.537Z,52.71
2022-08-05T00:54:03.220Z,52.41
2022-08-05T00:55:03.783Z,52.37
2022-08-05T00:56:04.221Z,52.81
2022-08-05T00:57:04.901Z,52.28
2022-08-05T00:58:05.333Z,52.68
2022-08-05T00:59:07.175Z,53.04
2022-08-05T01:00:11.374Z,53.16
2022-08-05T01:01:14.111Z,53.24
2022-08-05T01:02:16.812Z,52.61
2022-08-05T01:03:23.571Z,52.8
2022-08-05T01:04:30.189Z,53.29
2022-08-05T01:05:30.706Z,53.55
2022-08-05T01:06:32.973Z,53.38
2022-08-05T01:07:33.476Z,53.94
2022-08-05T01:08:44.394Z,53
2022-08-05T01:09:55.879Z,53.98
2022-08-05T01:10:58.142Z,54
2022-08-05T01:12:04.903Z,53.6
2022-08-05T01:13:58.192Z,54.61
2022-08-05T01:15:05.224Z,54.17
2022-08-05T01:16:05.789Z,54.43
2022-08-05T01:17:07.416Z,54.28
2022-08-05T01:18:11.694Z,54.05
2022-08-05T01:19:14.502Z,54.54
2022-08-05T01:20:16.797Z,54.71
2022-08-05T01:21:23.221Z,54.69
2022-08-05T01:22:39.723Z,54.64
2022-08-05T01:23:41.630Z,54.8
2022-08-05T01:24:44.823Z,54.36
2022-08-05T01:25:54.131Z,55.04
2022-08-05T01:26:54.958Z,55.29
2022-08-05T01:27:56.093Z,55.47
2022-08-05T01:29:04.245Z,55.37
2022-08-05T01:30:18.769Z,55.34
2022-08-05T01:31:45.380Z,55.28
2022-08-05T01:32:47.037Z,55.6
2022-08-05T01:33:53.571Z,55.83
2022-08-05T01:34:56.047Z,55.14
2022-08-05T01:35:57.812Z,55.41
2022-08-05T01:37:01.278Z,55.54
2022-08-05T01:38:03.563Z,55.29
2022-08-05T01:39:04.206Z,55.76
2022-08-05T01:40:05.012Z,55.48
2022-08-05T01:41:06.921Z,56.03
2022-08-05T01:42:10.011Z,55.59
2022-08-05T01:43:24.304Z,55.57
2022-08-05T01:44:35.609Z,56.14
2022-08-05T01:45:43.391Z,55.93
2022-08-05T01:46:56.736Z,56.29
2022-08-05T01:47:58.065Z,55.79
2022-08-05T01:48:59.135Z,55.67
2022-08-05T01:51:13.114Z,55.89
2022-08-05T01:52:19.042Z,55.62
2022-08-05T01:53:59.035Z,54.75
2022-08-05T01:55:04.856Z,54.72
2022-08-05T01:56:09.208Z,54.16
2022-08-05T01:58:15.130Z,51.98
2022-08-05T01:59:16.496Z,49.76
2022-08-05T02:00:16.895Z,49
2022-08-05T02:01:25.276Z,49.96
2022-08-05T02:02:35.124Z,48.68
2022-08-05T02:03:35.752Z,48.66
2022-08-05T02:04:36.558Z,48.24
2022-08-05T02:05:42.829Z,49
2022-08-05T02:06:45.275Z,49.17
2022-08-05T02:08:01.136Z,47.29
2022-08-05T02:09:02.499Z,47.23
2022-08-05T02:10:02.896Z,47.28
2022-08-05T02:11:03.288Z,48.07
2022-08-05T02:12:03.692Z,47.02
2022-08-05T02:13:04.988Z,47.3
2022-08-05T02:14:18.494Z,46.9
2022-08-05T02:15:20.039Z,47.26
2022-08-05T02:16:22.354Z,47.48
2022-08-05T02:18:34.739Z,46.33
2022-08-05T02:19:47.810Z,46.3
2022-08-05T02:20:49.471Z,47.24
2022-08-05T02:21:49.888Z,46.61
2022-08-05T02:22:50.329Z,47.41
2022-08-05T02:23:50.729Z,46.33
2022-08-05T02:24:52.192Z,46.87
2022-08-05T02:25:52.681Z,47.65
2022-08-05T02:26:55.173Z,47.52
2022-08-05T02:28:00.425Z,47.38
2022-08-05T02:29:04.174Z,47.78
2022-08-05T02:30:04.577Z,48.08
2022-08-05T02:31:07.775Z,47.29
2022-08-05T02:32:29.329Z,47.69
2022-08-05T02:33:39.362Z,47.35
2022-08-05T02:34:40.133Z,47.42
2022-08-05T02:36:00.627Z,47.68
2022-08-05T02:37:04.581Z,47.58
2022-08-05T02:38:09.713Z,47.86
2022-08-05T02:39:14.052Z,47.92
2022-08-05T02:40:14.687Z,47.95
2022-08-05T02:41:18.094Z,47.22
2022-08-05T02:42:30.851Z,47.32
2022-08-05T02:44:06.908Z,48.03
2022-08-05T02:45:16.138Z,48.14
2022-08-05T02:46:27.747Z,48.2
2022-08-05T02:48:12.186Z,48.46
2022-08-05T02:49:14.029Z,48.92
2022-08-05T02:50:18.329Z,49.09
2022-08-05T02:52:01.276Z,48.33
2022-08-05T02:53:12.006Z,48.73
2022-08-05T02:54:36.611Z,48.22
2022-08-05T02:56:00.229Z,48.08
2022-08-05T02:57:05.259Z,48.04
2022-08-05T02:59:13.974Z,49.65
2022-08-05T03:00:15.321Z,49.31
2022-08-05T03:01:19.757Z,49.14
2022-08-05T03:02:20.645Z,49.52
2022-08-05T03:03:23.861Z,50.25
2022-08-05T03:04:24.344Z,49.05
2022-08-05T03:06:59.312Z,49.21
2022-08-05T03:08:09.434Z,50.47
2022-08-05T03:09:17.852Z,49.61
2022-08-05T03:10:37.401Z,49.98
2022-08-05T03:11:58.358Z,50.43
2022-08-05T03:14:04.126Z,49.54
2022-08-05T03:15:07.034Z,50.07
2022-08-05T03:16:15.866Z,49.92
2022-08-05T03:17:22.224Z,50.06
2022-08-05T03:18:30.651Z,49.54
2022-08-05T03:19:36.345Z,49.98
2022-08-05T03:20:36.859Z,50.65
2022-08-05T03:21:49.401Z,51.11
2022-08-05T03:22:50.777Z,50.51
2022-08-05T03:23:51.179Z,50.31
2022-08-05T03:24:52.440Z,50.1
2022-08-05T03:26:32.196Z,50.55
2022-08-05T03:28:00.634Z,50.25
2022-08-05T03:29:01.159Z,50.41
2022-08-05T03:30:09.149Z,50.92
2022-08-05T03:31:55.287Z,50.62
2022-08-05T03:33:01.902Z,50.03
2022-08-05T03:34:02.731Z,50.24
2022-08-05T03:35:04.784Z,50.8
2022-08-05T03:36:12.285Z,50.42
2022-08-05T03:37:14.530Z,50.39
2022-08-05T03:38:14.932Z,50.17
2022-08-05T03:39:27.868Z,50.29
2022-08-05T03:40:32.930Z,50.62
2022-08-05T03:41:46.719Z,50.46
2022-08-05T03:42:53.041Z,51.44
2022-08-05T03:44:11.955Z,50.62
2022-08-05T03:45:23.451Z,50.9
2022-08-05T03:46:32.508Z,51.47
2022-08-05T03:47:35.738Z,51.42
2022-08-05T03:48:45.519Z,51.16
2022-08-05T03:49:52.595Z,50.83
2022-08-05T03:50:53.022Z,51.65
2022-08-05T03:55:51.430Z,51.1
2022-08-05T03:57:42.929Z,51.46
2022-08-05T03:58:45.609Z,51.44
2022-08-05T03:59:55.654Z,52.11
2022-08-05T04:00:56.385Z,52.02
2022-08-05T04:01:59.398Z,52.43
2022-08-05T04:02:59.961Z,52.88
2022-08-05T04:04:10.956Z,53.07
2022-08-05T04:05:11.545Z,54.13
2022-08-05T04:06:12.570Z,54.96
2022-08-05T04:07:13.396Z,54.99
2022-08-05T04:08:30.341Z,55.42
2022-08-05T04:09:37.482Z,54.99
2022-08-05T04:10:38.609Z,55.61
2022-08-05T04:11:50.986Z,55.58
2022-08-05T04:12:55.003Z,55.47
2022-08-05T04:13:55.405Z,56.15
2022-08-05T04:14:57.977Z,55.78
2022-08-05T04:16:05.015Z,55.56
2022-08-05T04:17:05.876Z,55.71
2022-08-05T04:18:07.954Z,55.34
2022-08-05T04:19:23.528Z,55.88
2022-08-05T04:20:24.520Z,56.48
2022-08-05T04:22:11.925Z,56.29
2022-08-05T04:23:16.363Z,56.18
2022-08-05T04:24:22.799Z,55.83
2022-08-05T04:26:00.450Z,56.37
2022-08-05T04:27:01.560Z,56.59
2022-08-05T04:28:12.852Z,56.73
2022-08-05T04:29:14.461Z,56.53
2022-08-05T04:30:14.859Z,56.84
2022-08-05T04:31:16.208Z,56.41
2022-08-05T04:32:33.092Z,57
2022-08-05T04:34:34.624Z,57.05
2022-08-05T04:36:45.352Z,56.45
2022-08-05T04:38:06.700Z,56.44
2022-08-05T04:39:07.725Z,56.29
2022-08-05T04:40:08.491Z,56.08
2022-08-05T04:41:10.258Z,55.65
2022-08-05T04:42:11.677Z,55.43
2022-08-05T04:43:17.008Z,55.6
2022-08-05T04:44:30.574Z,56.1
2022-08-05T04:45:54.795Z,55.1
2022-08-05T04:46:56.782Z,55.63
2022-08-05T04:48:00.451Z,55.59
2022-08-05T04:49:02.296Z,55.46
2022-08-05T04:50:11.877Z,55.1
2022-08-05T04:51:13.676Z,54.94
2022-08-05T04:52:15.221Z,54.77
2022-08-05T04:53:16.356Z,54.99
2022-08-05T04:54:17.792Z,54.98
2022-08-05T04:56:14.352Z,55.02
2022-08-05T04:57:37.785Z,55.03
2022-08-05T04:58:38.200Z,55.21
2022-08-05T04:59:41.078Z,55.32
2022-08-05T05:00:41.500Z,55.2
2022-08-05T05:02:41.658Z,55.97
2022-08-05T05:03:44.785Z,56.42
2022-08-05T05:04:49.835Z,56.54
2022-08-05T05:06:49.182Z,56.41
2022-08-05T05:08:02.436Z,56.3
2022-08-05T05:09:05.706Z,56.89
2022-08-05T05:10:07.210Z,56.74
2022-08-05T05:11:08.279Z,56.03
2022-08-05T05:12:08.696Z,56.37
2022-08-05T05:13:09.122Z,55.95
2022-08-05T05:14:16.407Z,55.62
2022-08-05T05:15:17.625Z,55.19
2022-08-05T05:17:03.781Z,54.57
2022-08-05T05:18:09.988Z,54.39
2022-08-05T05:19:26.699Z,54.53
2022-08-05T05:20:46.230Z,54.77
2022-08-05T05:21:55.790Z,54.13
2022-08-05T05:22:57.810Z,53.74
2022-08-05T05:24:09.018Z,54.1
2022-08-05T05:25:17.478Z,54.29
2022-08-05T05:26:18.006Z,53.96
2022-08-05T05:27:21.363Z,53.9
2022-08-05T05:28:25.086Z,53.81
2022-08-05T05:30:05.260Z,54.08
2022-08-05T05:31:09.065Z,54.08
2022-08-05T05:32:15.825Z,53.81
2022-08-05T05:33:23.843Z,54.98
2022-08-05T05:34:27.349Z,54.42
2022-08-05T05:35:31.571Z,54.73
2022-08-05T05:36:47.038Z,54.76
2022-08-05T05:38:02.472Z,54.71
2022-08-05T05:39:04.569Z,54.2
2022-08-05T05:40:12.474Z,53.35
2022-08-05T05:41:16.563Z,53.38
2022-08-05T05:42:20.969Z,52.97
2022-08-05T05:43:57.719Z,53.16
2022-08-05T05:45:03.280Z,52.75
2022-08-05T05:46:06.336Z,53.01
2022-08-05T05:47:22.434Z,52.63
2022-08-05T05:49:23.388Z,52.62
2022-08-05T05:50:25.979Z,52.87
2022-08-05T05:51:28.302Z,52.91
2022-08-05T05:52:40.528Z,53.16
2022-08-05T05:53:59.672Z,52.52
2022-08-05T05:55:01.911Z,52.91
2022-08-05T05:56:13.804Z,52.67
2022-08-05T05:57:19.615Z,52.59
2022-08-05T05:58:31.553Z,52.79
2022-08-05T05:59:40.527Z,53.28
2022-08-05T06:00:46.605Z,52.73
2022-08-05T06:01:58.174Z,52.26
2022-08-05T06:02:59.305Z,52.52
2022-08-05T06:04:03.740Z,52.63
2022-08-05T06:05:17.246Z,52.27
2022-08-05T06:06:17.991Z,52.49
2022-08-05T06:07:22.989Z,52.29
2022-08-05T06:09:04.237Z,52.44
2022-08-05T06:10:10.649Z,52.47
2022-08-05T06:11:13.598Z,52.09
2022-08-05T06:12:15.745Z,51.67
2022-08-05T06:13:16.170Z,51.69
2022-08-05T06:14:17.292Z,51.39
2022-08-05T06:15:24.584Z,51.92
2022-08-05T06:17:54.501Z,51.35
2022-08-05T06:19:01.339Z,51.38
2022-08-05T06:20:21.316Z,51.21
2022-08-05T06:21:22.360Z,51.92
2022-08-05T06:22:24.405Z,52.15
2022-08-05T06:23:24.821Z,51.85
2022-08-05T06:24:27.461Z,51.19
2022-08-05T06:26:24.183Z,51.51
2022-08-05T06:28:21.507Z,51.29
2022-08-05T06:30:04.053Z,50.18
2022-08-05T06:31:22.682Z,50.3
2022-08-05T06:32:32.971Z,50.75
2022-08-05T06:34:09.243Z,50.28
2022-08-05T06:35:22.151Z,50.79
2022-08-05T06:37:12.519Z,50.17
2022-08-05T06:38:12.992Z,49.67
2022-08-05T06:39:14.166Z,50.79
2022-08-05T06:40:21.538Z,50.09
2022-08-05T06:41:40.618Z,50.28
2022-08-05T06:42:42.141Z,50.57
2022-08-05T06:44:00.453Z,51.02
2022-08-05T06:45:09.258Z,49.39
2022-08-05T06:46:21.223Z,49.69
2022-08-05T06:48:53.328Z,49.67
2022-08-05T06:50:05.665Z,50.34
2022-08-05T06:51:11.355Z,50.16
2022-08-05T06:52:40.315Z,50
2022-08-05T06:53:53.827Z,49.58
2022-08-05T06:54:54.327Z,49.65
2022-08-05T06:55:54.733Z,50.71
2022-08-05T06:58:20.463Z,49.99
2022-08-05T06:59:42.425Z,49.06
2022-08-05T07:00:58.905Z,49.2
2022-08-05T07:01:59.624Z,49.17
2022-08-05T07:03:01.019Z,49.41
2022-08-05T07:04:02.569Z,49.67
2022-08-05T07:05:18.800Z,48.9
2022-08-05T07:06:23.777Z,49.83
2022-08-05T07:07:43.949Z,49.14
2022-08-05T07:08:55.229Z,50.02
2022-08-05T07:09:58.720Z,49.34
2022-08-05T07:10:59.130Z,48.88
2022-08-05T07:12:02.413Z,48.43
2022-08-05T07:13:02.867Z,49.51
2022-08-05T07:14:04.464Z,50.09
2022-08-05T07:15:08.977Z,49.49
2022-08-05T07:16:12.272Z,49.54
2022-08-05T07:19:09.626Z,48.54
2022-08-05T07:20:34.240Z,49.32
2022-08-05T07:22:01.403Z,48.52
2022-08-05T07:23:04.746Z,48.66
2022-08-05T07:24:11.624Z,48.44
2022-08-05T07:25:56.582Z,48.25
2022-08-05T07:26:57.599Z,48.9
2022-08-05T07:28:08.318Z,48.29
2022-08-05T07:30:22.398Z,48.07
2022-08-05T07:31:55.323Z,47.85
2022-08-05T07:32:57.570Z,47.29
2022-08-05T07:34:00.094Z,47.48
2022-08-05T07:36:20.511Z,47.45
2022-08-05T07:37:22.687Z,46.94
2022-08-05T07:38:44.242Z,46.63
2022-08-05T07:40:33.187Z,46.75
2022-08-05T07:42:15.490Z,46.36
2022-08-05T07:43:35.083Z,46.57
2022-08-05T07:44:39.789Z,46.71
2022-08-05T07:45:58.684Z,46.65
2022-08-05T07:47:00.599Z,46.8
2022-08-05T07:48:08.890Z,46.45
2022-08-05T07:49:09.298Z,47.14
2022-08-05T07:50:09.723Z,46.53
2022-08-05T07:50:59.817Z,46.43
2022-08-05T07:52:00.298Z,47.47
2022-08-05T07:53:00.730Z,46.59
2022-08-05T07:54:02.073Z,45.78
2022-08-05T07:55:44.095Z,45.96
2022-08-05T07:58:04.282Z,45.49
2022-08-05T07:59:55.773Z,45.56
2022-08-05T08:00:56.829Z,45.59
2022-08-05T08:01:58.173Z,45.13
2022-08-05T08:03:16.020Z,45.36
2022-08-05T08:04:37.220Z,45.79
2022-08-05T08:05:41.851Z,44.83
2022-08-05T08:06:51.399Z,45.31
2022-08-05T08:08:00.673Z,45.82
2022-08-05T08:09:01.264Z,44.96
2022-08-05T08:10:01.719Z,44.93
2022-08-05T08:11:02.164Z,44.49
2022-08-05T08:12:37.675Z,44.5
2022-08-05T08:14:01.362Z,44.39
2022-08-05T08:15:03.405Z,44.43
2022-08-05T08:16:51.534Z,44.57
2022-08-05T08:17:54.173Z,45.42
2022-08-05T08:18:54.971Z,42.37
2022-08-05T08:21:00.776Z,42.26
2022-08-05T08:22:16.078Z,44.75
2022-08-05T08:24:05.203Z,40.91
2022-08-05T08:48:23.946Z,36.72
2022-08-05T09:02:34.682Z,35.79
2022-08-05T09:03:45.599Z,36.77
2022-08-05T09:05:18.293Z,35.59
2022-08-05T09:07:58.247Z,34.97
2022-08-05T09:08:59.651Z,37.76
2022-08-05T09:10:00.101Z,36.82
2022-08-05T09:15:15.198Z,36.6
2022-08-05T09:16:17.279Z,34.91
2022-08-05T09:17:43.240Z,36.87
2022-08-05T09:18:55.676Z,36.23
2022-08-05T09:20:04.926Z,35.95
2022-08-05T10:04:35.279Z,38.08
2022-08-05T10:11:23.027Z,35.91
2022-08-05T10:12:34.142Z,37.08
2022-08-05T12:03:32.830Z,31.84
2022-08-05T12:04:34.138Z,31.58
2022-08-05T12:05:40.160Z,31.63
2022-08-05T12:06:49.253Z,31.56
2022-08-05T13:31:14.722Z,34.78
2022-08-05T13:35:07.019Z,35.4
2022-08-05T13:36:09.774Z,34.08
2022-08-05T13:37:10.326Z,34.01
2022-08-05T13:38:30.429Z,33.53
2022-08-05T13:40:35.798Z,33.7
2022-08-05T13:41:53.353Z,33.12
2022-08-05T13:42:55.806Z,33.45
2022-08-05T13:43:56.352Z,33.78
2022-08-05T13:44:59.088Z,33.77
2022-08-05T13:45:59.507Z,32.85
2022-08-05T13:47:09.274Z,33.2
2022-08-05T13:49:00.788Z,33.61
2022-08-05T13:50:09.669Z,33.76
2022-08-05T13:51:17.172Z,33.25
2022-08-05T13:52:17.585Z,33.99
2022-08-05T13:53:18.904Z,32.65
2022-08-05T13:54:25.292Z,33.47
2022-08-05T13:55:48.637Z,33.58
2022-08-05T13:57:02.667Z,32.65
2022-08-05T13:58:03.108Z,33.08
2022-08-05T13:59:20.943Z,33.01
2022-08-05T14:00:28.018Z,32.61
2022-08-05T14:01:56.980Z,33.05
2022-08-05T14:03:01.653Z,33.5
2022-08-05T14:04:02.337Z,32.63
2022-08-05T14:05:02.793Z,33.29
2022-08-05T14:06:27.170Z,33.36
2022-08-05T14:08:08.655Z,33.27
2022-08-05T14:09:29.881Z,33.04
2022-08-05T14:10:31.347Z,31.97
2022-08-05T14:12:04.549Z,31.66
2022-08-05T14:13:34.714Z,32.26
2022-08-05T14:14:35.134Z,32.08
2022-08-05T14:16:11.668Z,32
2022-08-05T14:17:19.659Z,32.69
2022-08-05T14:18:24.258Z,31.87
2022-08-05T14:19:26.448Z,32.02
2022-08-05T14:20:29.252Z,32.84
2022-08-05T14:22:11.994Z,100
2022-08-05T14:23:15.346Z,100
2022-08-05T14:24:00.874Z,32.92
2022-08-05T14:25:01.327Z,32.63
2022-08-05T14:26:05.023Z,33.22
2022-08-05T14:27:18.665Z,33.31
2022-08-05T14:28:28.046Z,33.62
2022-08-05T14:29:31.537Z,33.07
2022-08-05T14:30:33.588Z,33.03
2022-08-05T14:32:12.302Z,33.57
2022-08-05T14:33:57.121Z,33.64
2022-08-05T14:35:01.782Z,33.73
2022-08-05T14:36:02.397Z,33.39
2022-08-05T14:37:02.858Z,32.71
2022-08-05T14:38:04.547Z,32.23
2022-08-05T14:39:05.126Z,32.11
2022-08-05T14:40:16.701Z,32.41
2022-08-05T14:41:18.869Z,32.4
2022-08-05T14:42:22.125Z,32.81
2022-08-05T14:44:05.747Z,33.51
2022-08-05T14:45:23.246Z,32.49
2022-08-05T14:46:29.715Z,32.48
2022-08-05T14:48:06.218Z,32.83
2022-08-05T14:50:04.846Z,32.76
2022-08-05T14:51:20.217Z,32.9
2022-08-05T14:52:53.336Z,32.96
2022-08-05T14:54:30.413Z,33.17
2022-08-05T14:55:40.252Z,33.56
2022-08-05T14:56:47.179Z,33.32
2022-08-05T14:57:56.680Z,32.84
2022-08-05T14:58:57.201Z,32.86
2022-08-05T14:59:58.965Z,33.59
2022-08-05T15:01:01.854Z,33.78
2022-08-05T15:02:03.238Z,33.62
2022-08-05T15:03:15.067Z,33.37
2022-08-05T15:04:15.492Z,33.3
2022-08-05T15:05:15.913Z,33.38
2022-08-05T15:06:16.359Z,33.3
2022-08-05T15:08:13.232Z,33.61
2022-08-05T15:10:03.523Z,33.76
2022-08-05T15:11:04.377Z,33.94
2022-08-05T15:12:09.405Z,33.85
2022-08-05T15:13:17.888Z,33.77
2022-08-05T15:14:42.164Z,34.43
2022-08-05T15:15:56.495Z,33.63
2022-08-05T15:16:57.059Z,33.86
2022-08-05T15:18:05.785Z,34.14
2022-08-05T15:19:23.167Z,33.86
2022-08-05T15:20:25.093Z,33.5
2022-08-05T15:21:30.643Z,34.08
2022-08-05T15:22:35.823Z,34.82
2022-08-05T15:23:38.227Z,33.76
2022-08-05T15:24:39.972Z,34.15
2022-08-05T15:25:55.837Z,33.31
2022-08-05T15:27:03.639Z,33.86
2022-08-05T15:28:15.108Z,33.96
2022-08-05T15:29:16.666Z,33.65
2022-08-05T15:30:17.116Z,33.62
2022-08-05T15:31:20.149Z,33.07
2022-08-05T15:32:28.810Z,33.01
2022-08-05T15:34:33.750Z,33.44
2022-08-05T15:35:36.565Z,33.8
2022-08-05T15:36:46.121Z,100
2022-08-05T15:38:36.795Z,100
2022-08-05T15:41:21.772Z,100
2022-08-05T15:43:19.991Z,100
2022-08-05T15:44:22.420Z,100
2022-08-05T15:45:39.061Z,35.74
2022-08-05T15:46:39.627Z,35.33
2022-08-05T15:47:41.766Z,35.5
2022-08-05T15:48:58.037Z,34.74
2022-08-05T15:50:16.127Z,34.7
2022-08-05T15:51:16.641Z,34.92
2022-08-05T15:52:55.244Z,35.02
2022-08-05T15:53:59.318Z,35.26
2022-08-05T15:55:01.674Z,34.95
2022-08-05T15:56:08.111Z,35.39
2022-08-05T15:57:16.511Z,100
2022-08-05T15:58:17.434Z,100
2022-08-05T15:59:22.613Z,100
2022-08-05T16:00:43.193Z,100
2022-08-05T16:02:29.019Z,100
2022-08-05T16:03:33.953Z,29.07
2022-08-05T16:04:34.512Z,35.42
2022-08-05T16:05:39.176Z,35.25
2022-08-05T16:06:43.223Z,35.35
2022-08-05T16:07:49.233Z,35.18
2022-08-05T16:08:53.518Z,35.02
2022-08-05T16:09:58.402Z,34.77
2022-08-05T16:10:59.015Z,35.47
2022-08-05T16:11:59.623Z,35.3
2022-08-05T16:13:00.662Z,34.78
2022-08-05T16:14:02.713Z,35.2
2022-08-05T16:15:03.167Z,35.43
2022-08-05T16:16:03.985Z,35.41
2022-08-05T16:17:06.410Z,35.06
2022-08-05T16:18:10.023Z,35.62
2022-08-05T16:19:25.799Z,35.61
2022-08-05T16:21:13.921Z,35.76
2022-08-05T16:22:15.795Z,35.75
2022-08-05T16:23:16.693Z,35.7
2022-08-05T16:24:51.086Z,35.74
2022-08-05T16:25:56.136Z,35.85
2022-08-05T16:26:58.185Z,37.28
2022-08-05T16:28:06.474Z,36.21
2022-08-05T16:29:14.793Z,36.48
2022-08-05T16:30:28.990Z,36.01
2022-08-05T16:31:57.756Z,35.9
2022-08-05T16:32:58.395Z,35.98
2022-08-05T16:34:01.504Z,36.31
2022-08-05T16:35:07.757Z,36.86
2022-08-05T16:36:08.173Z,36.06
